Home > Products > Valid Products > TAF

000
FTUS43 KDMX 221120
TAFMCW
TAF
KMCW 221120Z 2212/2312 15013KT P6SM SCT070
     FM221500 15015KT P6SM VCSH BKN050
     FM221800 16016G21KT P6SM BKN050
     FM230000 16014KT P6SM BKN040
     FM230400 16013KT 6SM -SHRA OVC030
     FM230900 16011KT 4SM -RA BR OVC020=



000
FTUS43 KDMX 221120
TAFALO
TAF
KALO 221120Z 2212/2312 12006KT P6SM SCT070
     FM221500 15013KT P6SM BKN060
     FM221900 16013G21KT P6SM VCSH BKN050
     FM222300 15010KT P6SM BKN040
     FM230600 15010KT 6SM -SHRA OVC030=



000
FTUS43 KDMX 221120
TAFDSM
TAF
KDSM 221120Z 2212/2312 12008KT P6SM BKN060
     FM221400 14011KT P6SM VCSH BKN050
     FM221700 16013G20KT P6SM BKN070 BKN200
     FM230000 15009KT P6SM BKN040
     FM230500 15009KT 6SM -SHRA OVC030
     FM231000 16007KT 5SM -RA BR OVC020=



000
FTUS43 KDMX 221120
TAFFOD
TAF
KFOD 221120Z 2212/2312 15009G14KT P6SM VCSH BKN060
     FM221500 16015G21KT P6SM SCT050 BKN200
     FM230000 17015KT P6SM SCT030 BKN180
     FM230300 17015KT 6SM -SHRA OVC030=



000
FTUS43 KDMX 221120
TAFOTM
TAF
KOTM 221120Z 2212/2312 12009KT P6SM SCT060
     FM221600 15011KT P6SM BKN050
     FM230700 15009KT 6SM -SHRA OVC030=



000
FTUS43 KDMX 220520
TAFMCW
TAF
KMCW 220520Z 2206/2306 14009KT P6SM SKC
     FM221400 15015KT P6SM BKN050
     FM221600 16016G21KT P6SM BKN050
     FM230000 16014KT P6SM BKN040
     FM230400 16013KT 6SM -SHRA OVC030=



000
FTUS43 KDMX 220520
TAFDSM
TAF
KDSM 220520Z 2206/2306 14009KT P6SM SCT050
     FM221000 14011KT P6SM BKN050
     FM230000 15009KT P6SM BKN040
     FM230500 15009KT 6SM -SHRA OVC030=



000
FTUS43 KDMX 220520
TAFOTM
TAF
KOTM 220520Z 2206/2306 12008KT P6SM FEW050
     FM221600 15011KT P6SM BKN050=



000
FTUS43 KDMX 220520
TAFALO
TAF
KALO 220520Z 2206/2306 13008KT P6SM SKC
     FM221500 15013KT P6SM SCT060
     FM221900 16013KT P6SM BKN050
     FM230000 15010KT P6SM BKN040=



000
FTUS43 KDMX 220520
TAFFOD
TAF
KFOD 220520Z 2206/2306 13007KT P6SM SKC
     FM221100 15011KT 6SM BR BKN050
     FM221500 16015G21KT P6SM SCT050 BKN200
     FM230000 17015KT P6SM SCT030 BKN180
     FM230300 17015KT 6SM -SHRA OVC030=



000
FTUS43 KDMX 220520
TAFMCW
TAF
KMCW 220520Z 2206/2306 14009KT P6SM SKC
     FM221400 15015KT P6SM BKN050
     FM221600 16016G21KT P6SM BKN050
     FM230000 16014KT P6SM BKN040
     FM230400 16013KT 6SM -SHRA OVC030=



000
FTUS43 KDMX 220520
TAFOTM
TAF
KOTM 220520Z 2206/2306 12008KT P6SM FEW050
     FM221600 15011KT P6SM BKN050=



000
FTUS43 KDMX 220520
TAFALO
TAF
KALO 220520Z 2206/2306 13008KT P6SM SKC
     FM221500 15013KT P6SM SCT060
     FM221900 16013KT P6SM BKN050
     FM230000 15010KT P6SM BKN040=



000
FTUS43 KDMX 220520
TAFDSM
TAF
KDSM 220520Z 2206/2306 14009KT P6SM SCT050
     FM221000 14011KT P6SM BKN050
     FM230000 15009KT P6SM BKN040
     FM230500 15009KT 6SM -SHRA OVC030=



000
FTUS43 KDMX 220520
TAFFOD
TAF
KFOD 220520Z 2206/2306 13007KT P6SM SKC
     FM221100 15011KT 6SM BR BKN050
     FM221500 16015G21KT P6SM SCT050 BKN200
     FM230000 17015KT P6SM SCT030 BKN180
     FM230300 17015KT 6SM -SHRA OVC030=



000
FTUS43 KDMX 212320
TAFOTM
TAF
KOTM 212320Z 2200/2224 11007KT P6SM SKC
     FM221100 13008KT 5SM BR FEW005
     FM221400 15011KT P6SM SKC=



000
FTUS43 KDMX 212320
TAFFOD
TAF
KFOD 212320Z 2200/2224 13007KT P6SM SKC
     FM221100 14011KT 6SM BR BKN040
     FM221500 16015G20KT P6SM SCT040 BKN150=



000
FTUS43 KDMX 212320
TAFALO
TAF
KALO 212320Z 2200/2224 12008KT P6SM SKC
     FM221000 13006KT 5SM BR FEW005
     FM221400 15013KT P6SM SCT050=



000
FTUS43 KDMX 212320
TAFMCW
TAF
KMCW 212320Z 2200/2224 13009KT P6SM SKC
     FM221400 15015KT P6SM BKN040
     FM221600 16016G21KT P6SM BKN040=



000
FTUS43 KDMX 212320
TAFDSM
TAF
KDSM 212320Z 2200/2224 11008KT P6SM SKC
     FM221300 14009KT 6SM BR BKN035
     FM221500 15012KT P6SM OVC040=



000
FTUS43 KDMX 212320
TAFDSM
TAF
KDSM 212320Z 2200/2224 11008KT P6SM SKC
     FM221300 14009KT 6SM BR BKN035
     FM221500 15012KT P6SM OVC040=



000
FTUS43 KDMX 212320
TAFMCW
TAF
KMCW 212320Z 2200/2224 13009KT P6SM SKC
     FM221400 15015KT P6SM BKN040
     FM221600 16016G21KT P6SM BKN040=



000
FTUS43 KDMX 212320
TAFALO
TAF
KALO 212320Z 2200/2224 12008KT P6SM SKC
     FM221000 13006KT 5SM BR FEW005
     FM221400 15013KT P6SM SCT050=



000
FTUS43 KDMX 212320
TAFOTM
TAF
KOTM 212320Z 2200/2224 11007KT P6SM SKC
     FM221100 13008KT 5SM BR FEW005
     FM221400 15011KT P6SM SKC=



000
FTUS43 KDMX 212320
TAFFOD
TAF
KFOD 212320Z 2200/2224 13007KT P6SM SKC
     FM221100 14011KT 6SM BR BKN040
     FM221500 16015G20KT P6SM SCT040 BKN150=



000
FTUS43 KDMX 211729
TAFOTM
TAF
KOTM 211729Z 2118/2218 10007KT P6SM SKC
     FM221100 14008KT 6SM BR SKC
     FM221600 15010KT P6SM SKC=



000
FTUS43 KDMX 211729
TAFFOD
TAF
KFOD 211729Z 2118/2218 14010KT P6SM SKC
     FM221100 14011KT 6SM BR BKN040
     FM221500 15011KT P6SM BKN040=



000
FTUS43 KDMX 211729
TAFALO
TAF
KALO 211729Z 2118/2218 12008KT P6SM SKC
     FM221000 14008KT 6SM BR SKC
     FM221600 16010KT P6SM SKC=



000
FTUS43 KDMX 211729
TAFDSM
TAF
KDSM 211729Z 2118/2218 10008KT P6SM SKC
     FM221100 14009KT 6SM BR BKN035
     FM221500 15011KT P6SM OVC040=



000
FTUS43 KDMX 211729
TAFMCW
TAF
KMCW 211729Z 2118/2218 13010KT P6SM SKC
     FM221100 15010KT 6SM BR BKN040
     FM221500 16010KT P6SM SCT070=



000
FTUS43 KDMX 211228 AAA
TAFMCW
TAF AMD
KMCW 211228Z 2112/2212 09003KT P6SM SKC
      TEMPO 2112/2114 1 1/2SM BR
     FM211800 12009KT P6SM SKC=



000
FTUS43 KDMX 211130
TAFOTM
TAF
KOTM 211130Z 2112/2212 07005KT P6SM SKC
     FM220300 11007KT P6SM SKC=



000
FTUS43 KDMX 211130
TAFMCW
TAF
KMCW 211130Z 2112/2212 09006KT P6SM SKC
     FM211800 12009KT P6SM SKC=



000
FTUS43 KDMX 211130
TAFFOD
TAF
KFOD 211130Z 2112/2212 11006KT P6SM SKC
     FM211900 14011KT P6SM SKC=



000
FTUS43 KDMX 211130
TAFALO
TAF
KALO 211130Z 2112/2212 03003KT P6SM SKC
     FM211500 09007KT P6SM SKC
     FM220400 12007KT P6SM SKC=



000
FTUS43 KDMX 211130
TAFDSM
TAF
KDSM 211130Z 2112/2212 09005KT P6SM SKC
     FM220300 12007KT P6SM SKC=



000
FTUS43 KDMX 211130
TAFOTM
TAF
KOTM 211130Z 2112/2212 07005KT P6SM SKC
     FM220300 11007KT P6SM SKC=



000
FTUS43 KDMX 211130
TAFFOD
TAF
KFOD 211130Z 2112/2212 11006KT P6SM SKC
     FM211900 14011KT P6SM SKC=



000
FTUS43 KDMX 211130
TAFMCW
TAF
KMCW 211130Z 2112/2212 09006KT P6SM SKC
     FM211800 12009KT P6SM SKC=



000
FTUS43 KDMX 211130
TAFMCW
TAF
KMCW 211130Z 2112/2212 09006KT P6SM SKC
     FM211800 12009KT P6SM SKC=



000
FTUS43 KDMX 211130
TAFDSM
TAF
KDSM 211130Z 2112/2212 09005KT P6SM SKC
     FM220300 12007KT P6SM SKC=



000
FTUS43 KDMX 211130
TAFOTM
TAF
KOTM 211130Z 2112/2212 07005KT P6SM SKC
     FM220300 11007KT P6SM SKC=



000
FTUS43 KDMX 211130
TAFDSM
TAF
KDSM 211130Z 2112/2212 09005KT P6SM SKC
     FM220300 12007KT P6SM SKC=



000
FTUS43 KDMX 211130
TAFALO
TAF
KALO 211130Z 2112/2212 03003KT P6SM SKC
     FM211500 09007KT P6SM SKC
     FM220400 12007KT P6SM SKC=



000
FTUS43 KDMX 211130
TAFALO
TAF
KALO 211130Z 2112/2212 03003KT P6SM SKC
     FM211500 09007KT P6SM SKC
     FM220400 12007KT P6SM SKC=



000
FTUS43 KDMX 211130
TAFFOD
TAF
KFOD 211130Z 2112/2212 11006KT P6SM SKC
     FM211900 14011KT P6SM SKC=



000
FTUS43 KDMX 211130
TAFOTM
TAF
KOTM 211130Z 2112/2212 07005KT P6SM SKC
     FM220300 11007KT P6SM SKC=



000
FTUS43 KDMX 211130
TAFFOD
TAF
KFOD 211130Z 2112/2212 11006KT P6SM SKC
     FM211900 14011KT P6SM SKC=



000
FTUS43 KDMX 211130
TAFDSM
TAF
KDSM 211130Z 2112/2212 09005KT P6SM SKC
     FM220300 12007KT P6SM SKC=



000
FTUS43 KDMX 211130
TAFMCW
TAF
KMCW 211130Z 2112/2212 09006KT P6SM SKC
     FM211800 12009KT P6SM SKC=



000
FTUS43 KDMX 211130
TAFALO
TAF
KALO 211130Z 2112/2212 03003KT P6SM SKC
     FM211500 09007KT P6SM SKC
     FM220400 12007KT P6SM SKC=



000
FTUS43 KDMX 210520
TAFFOD
TAF
KFOD 210520Z 2106/2206 VRB02KT P6SM SKC
     FM211500 13007KT P6SM SKC
     FM220200 15010KT P6SM SCT250=



000
FTUS43 KDMX 210520
TAFMCW
TAF
KMCW 210520Z 2106/2206 03004KT P6SM SKC
     FM211500 12008KT P6SM FEW025
     FM220200 14008KT P6SM SKC=



000
FTUS43 KDMX 210520
TAFOTM
TAF
KOTM 210520Z 2106/2206 34006KT P6SM SKC
     FM211300 06007KT P6SM SKC
     FM220100 11005KT P6SM SKC=



000
FTUS43 KDMX 210520
TAFALO
TAF
KALO 210520Z 2106/2206 VRB02KT P6SM SKC
     FM211600 07006KT P6SM SCT026
     FM220300 12007KT P6SM SKC=



000
FTUS43 KDMX 210520
TAFDSM
TAF
KDSM 210520Z 2106/2206 05003KT P6SM SKC
     FM211500 10006KT P6SM SKC
     FM220300 12007KT P6SM SKC=



000
FTUS43 KDMX 210520
TAFDSM
TAF
KDSM 210520Z 2106/2206 05003KT P6SM SKC
     FM211500 10006KT P6SM SKC
     FM220300 12007KT P6SM SKC=



000
FTUS43 KDMX 210520
TAFFOD
TAF
KFOD 210520Z 2106/2206 VRB02KT P6SM SKC
     FM211500 13007KT P6SM SKC
     FM220200 15010KT P6SM SCT250=



000
FTUS43 KDMX 210520
TAFMCW
TAF
KMCW 210520Z 2106/2206 03004KT P6SM SKC
     FM211500 12008KT P6SM FEW025
     FM220200 14008KT P6SM SKC=



000
FTUS43 KDMX 210520
TAFOTM
TAF
KOTM 210520Z 2106/2206 34006KT P6SM SKC
     FM211300 06007KT P6SM SKC
     FM220100 11005KT P6SM SKC=



000
FTUS43 KDMX 210520
TAFALO
TAF
KALO 210520Z 2106/2206 VRB02KT P6SM SKC
     FM211600 07006KT P6SM SCT026
     FM220300 12007KT P6SM SKC=



000
FTUS43 KDMX 202334
TAFALO
TAF
KALO 202334Z 2100/2124 33009KT P6SM SKC
     FM210300 01005KT P6SM SKC
     FM211600 07006KT P6SM SCT026=



000
FTUS43 KDMX 202334
TAFOTM
TAF
KOTM 202334Z 2100/2124 34006KT P6SM SKC
     FM211300 06007KT P6SM SKC=



000
FTUS43 KDMX 202334
TAFMCW
TAF
KMCW 202334Z 2100/2124 32009KT P6SM SKC
     FM210300 06004KT P6SM SKC
     FM211500 11008KT P6SM FEW025=



000
FTUS43 KDMX 202334
TAFDSM
TAF
KDSM 202334Z 2100/2124 34007KT P6SM FEW300
     FM210400 05003KT P6SM SKC
     FM211500 10006KT P6SM SKC=



000
FTUS43 KDMX 202334
TAFFOD
TAF
KFOD 202334Z 2100/2124 VRB03KT P6SM SKC
     FM211500 13007KT P6SM SKC=



000
FTUS43 KDMX 202334
TAFMCW
TAF
KMCW 202334Z 2100/2124 32009KT P6SM SKC
     FM210300 06004KT P6SM SKC
     FM211500 11008KT P6SM FEW025=



000
FTUS43 KDMX 202334
TAFOTM
TAF
KOTM 202334Z 2100/2124 34006KT P6SM SKC
     FM211300 06007KT P6SM SKC=



000
FTUS43 KDMX 202334
TAFFOD
TAF
KFOD 202334Z 2100/2124 VRB03KT P6SM SKC
     FM211500 13007KT P6SM SKC=



000
FTUS43 KDMX 202334
TAFALO
TAF
KALO 202334Z 2100/2124 33009KT P6SM SKC
     FM210300 01005KT P6SM SKC
     FM211600 07006KT P6SM SCT026=



000
FTUS43 KDMX 202334
TAFDSM
TAF
KDSM 202334Z 2100/2124 34007KT P6SM FEW300
     FM210400 05003KT P6SM SKC
     FM211500 10006KT P6SM SKC=



000
FTUS43 KDMX 202126 AAA
TAFALO
TAF AMD
KALO 202126Z 2021/2118 32016G22KT P6SM SKC
     FM202300 01005KT P6SM SKC
     FM211400 07006KT P6SM SKC=



000
FTUS43 KDMX 202126 AAA
TAFALO
TAF AMD
KALO 202126Z 2021/2118 32016G22KT P6SM SKC
     FM202300 01005KT P6SM SKC
     FM211400 07006KT P6SM SKC=



000
FTUS43 KDMX 201725
TAFDSM
TAF
KDSM 201725Z 2018/2118 32010KT P6SM SKC
     FM202300 35005KT P6SM SKC
     FM210600 05003KT P6SM SKC
     FM211500 10006KT P6SM SKC=



000
FTUS43 KDMX 201725
TAFALO
TAF
KALO 201725Z 2018/2118 32012KT P6SM SKC
     FM202300 01005KT P6SM SKC
     FM211400 07006KT P6SM SKC=



000
FTUS43 KDMX 201725
TAFOTM
TAF
KOTM 201725Z 2018/2118 32010KT P6SM SKC
     FM202300 34005KT P6SM SKC
     FM211300 06007KT P6SM SKC=



000
FTUS43 KDMX 201725
TAFMCW
TAF
KMCW 201725Z 2018/2118 33013G19KT P6SM SKC
     FM202300 02006KT P6SM SKC
     FM210600 06004KT P6SM SKC
     FM211500 11008KT P6SM SKC=



000
FTUS43 KDMX 201725
TAFALO
TAF
KALO 201725Z 2018/2118 32012KT P6SM SKC
     FM202300 01005KT P6SM SKC
     FM211400 07006KT P6SM SKC=



000
FTUS43 KDMX 201725
TAFDSM
TAF
KDSM 201725Z 2018/2118 32010KT P6SM SKC
     FM202300 35005KT P6SM SKC
     FM210600 05003KT P6SM SKC
     FM211500 10006KT P6SM SKC=



000
FTUS43 KDMX 201725
TAFFOD
TAF
KFOD 201725Z 2018/2118 33007KT P6SM SKC
     FM202300 VRB03KT P6SM SKC
     FM211500 13007KT P6SM SKC=



000
FTUS43 KDMX 201725
TAFMCW
TAF
KMCW 201725Z 2018/2118 33013G19KT P6SM SKC
     FM202300 02006KT P6SM SKC
     FM210600 06004KT P6SM SKC
     FM211500 11008KT P6SM SKC=



000
FTUS43 KDMX 201725
TAFFOD
TAF
KFOD 201725Z 2018/2118 33007KT P6SM SKC
     FM202300 VRB03KT P6SM SKC
     FM211500 13007KT P6SM SKC=



000
FTUS43 KDMX 201725
TAFOTM
TAF
KOTM 201725Z 2018/2118 32010KT P6SM SKC
     FM202300 34005KT P6SM SKC
     FM211300 06007KT P6SM SKC=



000
FTUS43 KDMX 201120
TAFDSM
TAF
KDSM 201120Z 2012/2112 34007KT P6SM SKC
     FM201600 32010G18KT P6SM SKC
     FM202300 33004KT P6SM SKC
     FM210600 VRB03KT P6SM SKC=



000
FTUS43 KDMX 201120
TAFMCW
TAF
KMCW 201120Z 2012/2112 30008KT P6SM SKC
     FM201700 33014G20KT P6SM SKC
     FM202300 35006KT P6SM SKC
     FM210700 08005KT P6SM SKC=



000
FTUS43 KDMX 201120
TAFFOD
TAF
KFOD 201120Z 2012/2112 31003KT P6SM SKC
     FM201600 34009KT P6SM SKC
     FM210200 VRB03KT P6SM SKC=



000
FTUS43 KDMX 201120
TAFOTM
TAF
KOTM 201120Z 2012/2112 30008KT P6SM SKC
     FM201600 31011G18KT P6SM SKC
     FM202300 34005KT P6SM SKC
     FM210800 02004KT P6SM SKC=



000
FTUS43 KDMX 201120
TAFALO
TAF
KALO 201120Z 2012/2112 32008KT P6SM SKC
     FM201600 32011G18KT P6SM SKC
     FM202300 35005KT P6SM SKC
     FM210400 03004KT P6SM SKC=



000
FTUS43 KDMX 201120
TAFMCW
TAF
KMCW 201120Z 2012/2112 30008KT P6SM SKC
     FM201700 33014G20KT P6SM SKC
     FM202300 35006KT P6SM SKC
     FM210700 08005KT P6SM SKC=



000
FTUS43 KDMX 201120
TAFDSM
TAF
KDSM 201120Z 2012/2112 34007KT P6SM SKC
     FM201600 32010G18KT P6SM SKC
     FM202300 33004KT P6SM SKC
     FM210600 VRB03KT P6SM SKC=



000
FTUS43 KDMX 201120
TAFFOD
TAF
KFOD 201120Z 2012/2112 31003KT P6SM SKC
     FM201600 34009KT P6SM SKC
     FM210200 VRB03KT P6SM SKC=



000
FTUS43 KDMX 201120
TAFOTM
TAF
KOTM 201120Z 2012/2112 30008KT P6SM SKC
     FM201600 31011G18KT P6SM SKC
     FM202300 34005KT P6SM SKC
     FM210800 02004KT P6SM SKC=



000
FTUS43 KDMX 201120
TAFALO
TAF
KALO 201120Z 2012/2112 32008KT P6SM SKC
     FM201600 32011G18KT P6SM SKC
     FM202300 35005KT P6SM SKC
     FM210400 03004KT P6SM SKC=



000
FTUS43 KDMX 200520
TAFFOD
TAF
KFOD 200520Z 2006/2106 32005KT P6SM SKC
     FM201600 34009KT P6SM SKC=



000
FTUS43 KDMX 200520
TAFOTM
TAF
KOTM 200520Z 2006/2106 23006KT P6SM SKC
     FM201000 31007KT P6SM SKC
     FM201600 31010G16KT P6SM SKC
     FM202300 33005KT P6SM SKC=



000
FTUS43 KDMX 200520
TAFDSM
TAF
KDSM 200520Z 2006/2106 24006KT P6SM SKC
     FM200800 31007KT P6SM SKC
     FM201600 32010G16KT P6SM SKC
     FM202300 33004KT P6SM SKC=



000
FTUS43 KDMX 200520
TAFALO
TAF
KALO 200520Z 2006/2106 24009KT P6SM SKC
     FM200800 31007KT P6SM SKC
     FM201600 32011G17KT P6SM SKC
     FM202300 35005KT P6SM SKC=



000
FTUS43 KDMX 200520
TAFFOD
TAF
KFOD 200520Z 2006/2106 32005KT P6SM SKC
     FM201600 34009KT P6SM SKC=



000
FTUS43 KDMX 200520
TAFALO
TAF
KALO 200520Z 2006/2106 24009KT P6SM SKC
     FM200800 31007KT P6SM SKC
     FM201600 32011G17KT P6SM SKC
     FM202300 35005KT P6SM SKC=



000
FTUS43 KDMX 200520
TAFMCW
TAF
KMCW 200520Z 2006/2106 31008KT P6SM SKC
     FM201600 33012G18KT P6SM SKC
     FM202300 35006KT P6SM SKC=



000
FTUS43 KDMX 200520
TAFDSM
TAF
KDSM 200520Z 2006/2106 24006KT P6SM SKC
     FM200800 31007KT P6SM SKC
     FM201600 32010G16KT P6SM SKC
     FM202300 33004KT P6SM SKC=



000
FTUS43 KDMX 200520
TAFDSM
TAF
KDSM 200520Z 2006/2106 24006KT P6SM SKC
     FM200800 31007KT P6SM SKC
     FM201600 32010G16KT P6SM SKC
     FM202300 33004KT P6SM SKC=



000
FTUS43 KDMX 200520
TAFOTM
TAF
KOTM 200520Z 2006/2106 23006KT P6SM SKC
     FM201000 31007KT P6SM SKC
     FM201600 31010G16KT P6SM SKC
     FM202300 33005KT P6SM SKC=



000
FTUS43 KDMX 200520
TAFFOD
TAF
KFOD 200520Z 2006/2106 32005KT P6SM SKC
     FM201600 34009KT P6SM SKC=



000
FTUS43 KDMX 200520
TAFALO
TAF
KALO 200520Z 2006/2106 24009KT P6SM SKC
     FM200800 31007KT P6SM SKC
     FM201600 32011G17KT P6SM SKC
     FM202300 35005KT P6SM SKC=



000
FTUS43 KDMX 200520
TAFOTM
TAF
KOTM 200520Z 2006/2106 23006KT P6SM SKC
     FM201000 31007KT P6SM SKC
     FM201600 31010G16KT P6SM SKC
     FM202300 33005KT P6SM SKC=



000
FTUS43 KDMX 192322
TAFALO
TAF
KALO 192322Z 2000/2024 24009KT P6SM SKC
     FM200700 31007KT P6SM SKC
     FM201600 32011G17KT P6SM SKC=



000
FTUS43 KDMX 192322
TAFDSM
TAF
KDSM 192322Z 2000/2024 24007KT P6SM SKC
     FM200700 31007KT P6SM SKC
     FM201600 32011G17KT P6SM SKC=



000
FTUS43 KDMX 192322
TAFFOD
TAF
KFOD 192322Z 2000/2024 26006KT P6SM SKC
     FM200500 31005KT P6SM SKC
     FM201600 33009G15KT P6SM SKC=



000
FTUS43 KDMX 192322
TAFMCW
TAF
KMCW 192322Z 2000/2024 26009KT P6SM SKC
     FM200500 31008KT P6SM SKC
     FM201600 33012G18KT P6SM SKC=



000
FTUS43 KDMX 192322
TAFALO
TAF
KALO 192322Z 2000/2024 24009KT P6SM SKC
     FM200700 31007KT P6SM SKC
     FM201600 32011G17KT P6SM SKC=



000
FTUS43 KDMX 192322
TAFDSM
TAF
KDSM 192322Z 2000/2024 24007KT P6SM SKC
     FM200700 31007KT P6SM SKC
     FM201600 32011G17KT P6SM SKC=



000
FTUS43 KDMX 192322
TAFFOD
TAF
KFOD 192322Z 2000/2024 26006KT P6SM SKC
     FM200500 31005KT P6SM SKC
     FM201600 33009G15KT P6SM SKC=



000
FTUS43 KDMX 192322
TAFOTM
TAF
KOTM 192322Z 2000/2024 22007KT P6SM SKC
     FM200900 31007KT P6SM SKC
     FM201600 32011G17KT P6SM SKC=



000
FTUS43 KDMX 192322
TAFMCW
TAF
KMCW 192322Z 2000/2024 26009KT P6SM SKC
     FM200500 31008KT P6SM SKC
     FM201600 33012G18KT P6SM SKC=



000
FTUS43 KDMX 192322
TAFOTM
TAF
KOTM 192322Z 2000/2024 22007KT P6SM SKC
     FM200900 31007KT P6SM SKC
     FM201600 32011G17KT P6SM SKC=



000
FTUS43 KDMX 192322
TAFMCW
TAF
KMCW 192322Z 2000/2024 26009KT P6SM SKC
     FM200500 31008KT P6SM SKC
     FM201600 33012G18KT P6SM SKC=



000
FTUS43 KDMX 192322
TAFALO
TAF
KALO 192322Z 2000/2024 24009KT P6SM SKC
     FM200700 31007KT P6SM SKC
     FM201600 32011G17KT P6SM SKC=



000
FTUS43 KDMX 192322
TAFDSM
TAF
KDSM 192322Z 2000/2024 24007KT P6SM SKC
     FM200700 31007KT P6SM SKC
     FM201600 32011G17KT P6SM SKC=



000
FTUS43 KDMX 192322
TAFFOD
TAF
KFOD 192322Z 2000/2024 26006KT P6SM SKC
     FM200500 31005KT P6SM SKC
     FM201600 33009G15KT P6SM SKC=



000
FTUS43 KDMX 192322
TAFOTM
TAF
KOTM 192322Z 2000/2024 22007KT P6SM SKC
     FM200900 31007KT P6SM SKC
     FM201600 32011G17KT P6SM SKC=



000
FTUS43 KDMX 192322
TAFMCW
TAF
KMCW 192322Z 2000/2024 26009KT P6SM SKC
     FM200500 31008KT P6SM SKC
     FM201600 33012G18KT P6SM SKC=



000
FTUS43 KDMX 192322
TAFDSM
TAF
KDSM 192322Z 2000/2024 24007KT P6SM SKC
     FM200700 31007KT P6SM SKC
     FM201600 32011G17KT P6SM SKC=



000
FTUS43 KDMX 192322
TAFALO
TAF
KALO 192322Z 2000/2024 24009KT P6SM SKC
     FM200700 31007KT P6SM SKC
     FM201600 32011G17KT P6SM SKC=



000
FTUS43 KDMX 192322
TAFFOD
TAF
KFOD 192322Z 2000/2024 26006KT P6SM SKC
     FM200500 31005KT P6SM SKC
     FM201600 33009G15KT P6SM SKC=



000
FTUS43 KDMX 192322
TAFOTM
TAF
KOTM 192322Z 2000/2024 22007KT P6SM SKC
     FM200900 31007KT P6SM SKC
     FM201600 32011G17KT P6SM SKC=



000
FTUS43 KDMX 191720
TAFDSM
TAF
KDSM 191720Z 1918/2018 22015KT P6SM BKN200
     FM192300 22008KT P6SM SCT200
     FM200400 27006KT P6SM SKC
     FM200900 33007KT P6SM SKC=



000
FTUS43 KDMX 191720
TAFFOD
TAF
KFOD 191720Z 1918/2018 23014G22KT P6SM BKN200
     FM192300 22007KT P6SM SKC
     FM200300 27004KT P6SM SKC
     FM200800 34005KT P6SM SKC=



000
FTUS43 KDMX 191720
TAFALO
TAF
KALO 191720Z 1918/2018 22013G21KT P6SM FEW100 BKN250
     FM192300 22008KT P6SM SCT120
     FM200400 27006KT P6SM SKC
     FM200800 32007KT P6SM SKC=



000
FTUS43 KDMX 191720
TAFFOD
TAF
KFOD 191720Z 1918/2018 23014G22KT P6SM BKN200
     FM192300 22007KT P6SM SKC
     FM200300 27004KT P6SM SKC
     FM200800 34005KT P6SM SKC=



000
FTUS43 KDMX 191720
TAFMCW
TAF
KMCW 191720Z 1918/2018 23016G24KT P6SM BKN200
     FM192300 25009KT P6SM SKC
     FM200400 28008KT P6SM SKC
     FM200700 32008KT P6SM SKC=



000
FTUS43 KDMX 191720
TAFOTM
TAF
KOTM 191720Z 1918/2018 21013KT P6SM SCT200
     FM192300 21008KT P6SM SCT150
     FM200600 27007KT P6SM SKC
     FM201100 32008KT P6SM SKC=



000
FTUS43 KDMX 191720
TAFMCW
TAF
KMCW 191720Z 1918/2018 23016G24KT P6SM BKN200
     FM192300 25009KT P6SM SKC
     FM200400 28008KT P6SM SKC
     FM200700 32008KT P6SM SKC=



000
FTUS43 KDMX 191720
TAFALO
TAF
KALO 191720Z 1918/2018 22013G21KT P6SM FEW100 BKN250
     FM192300 22008KT P6SM SCT120
     FM200400 27006KT P6SM SKC
     FM200800 32007KT P6SM SKC=



000
FTUS43 KDMX 191720
TAFDSM
TAF
KDSM 191720Z 1918/2018 22015KT P6SM BKN200
     FM192300 22008KT P6SM SCT200
     FM200400 27006KT P6SM SKC
     FM200900 33007KT P6SM SKC=



000
FTUS43 KDMX 191720
TAFOTM
TAF
KOTM 191720Z 1918/2018 21013KT P6SM SCT200
     FM192300 21008KT P6SM SCT150
     FM200600 27007KT P6SM SKC
     FM201100 32008KT P6SM SKC=



000
FTUS43 KDMX 191459 AAA
TAFMCW
TAF AMD
KMCW 191459Z 1915/2012 22018G24KT P6SM BKN150
     FM200000 25009KT P6SM SKC
     FM200400 31009KT P6SM SKC=



000
FTUS43 KDMX 191459 AAA
TAFFOD
TAF AMD
KFOD 191459Z 1915/2012 22015KT P6SM BKN150
     FM200000 22007KT P6SM SKC
     FM200500 33004KT P6SM SKC=



000
FTUS43 KDMX 191459 AAA
TAFFOD
TAF AMD
KFOD 191459Z 1915/2012 22015KT P6SM BKN150
     FM200000 22007KT P6SM SKC
     FM200500 33004KT P6SM SKC=



    US Dept of Commerce
    National Oceanic and Atmospheric Administration
    National Weather Service
    1325 East West Highway
    Silver Spring, MD 20910
    Page Author: NWS Internet Services Team
Disclaimer
Information Quality
Credits
Glossary
Privacy Policy
Freedom of Information Act (FOIA)
About Us
Career Opportunities